Time;durP1;ratioP1;P1;durP2;ratioP2;P2;SDS_P1;SDS_P2;PMS_P1;PMS_P2;Temp;Humidity;BMP_temperature;BMP_pressure;BME280_temperature;BME280_humidity;BME280_pressure;Samples;Min_cycle;Max_cycle;Signal;HPM_P1;HPM_P2
2023/07/27 00:00:22;;;;;;;;;2.00;2.00;;;;;;;;5012145;28;51071;-60
2023/07/27 00:02:47;;;;;;;;;2.00;2.00;;;;;;;;5010905;28;51273;-59
2023/07/27 00:05:13;;;;;;;;;1.00;1.00;;;;;;;;5011947;28;51983;-59
2023/07/27 00:07:41;;;;;;;;;2.00;2.00;;;;;;;;5011818;28;51046;-59
2023/07/27 00:10:06;;;;;;;;;2.00;1.00;;;;;;;;5011702;28;51007;-60
2023/07/27 00:12:31;;;;;;;;;3.00;2.00;;;;;;;;5012006;28;51196;-59
2023/07/27 00:14:56;;;;;;;;;2.00;2.00;;;;;;;;5011828;28;51012;-60
2023/07/27 00:17:22;;;;;;;;;3.00;3.00;;;;;;;;5011939;28;51122;-59
2023/07/27 00:19:47;;;;;;;;;2.00;2.00;;;;;;;;5008844;28;51085;-60
2023/07/27 00:22:12;;;;;;;;;2.33;2.00;;;;;;;;5010609;28;51208;-60
2023/07/27 00:24:37;;;;;;;;;1.00;1.00;;;;;;;;5011866;28;51990;-60
2023/07/27 00:27:02;;;;;;;;;2.00;2.00;;;;;;;;5011903;28;51180;-60
2023/07/27 00:29:28;;;;;;;;;1.00;1.00;;;;;;;;5011996;28;51234;-59
2023/07/27 00:31:53;;;;;;;;;2.00;2.00;;;;;;;;5014068;28;51204;-60
2023/07/27 00:34:18;;;;;;;;;3.00;2.00;;;;;;;;5015044;28;52830;-59
2023/07/27 00:36:43;;;;;;;;;1.00;1.00;;;;;;;;5015147;28;50988;-59
2023/07/27 00:39:11;;;;;;;;;2.00;2.00;;;;;;;;5015069;28;50919;-61
2023/07/27 00:41:36;;;;;;;;;2.00;2.00;;;;;;;;5015385;28;50953;-59
2023/07/27 00:44:01;;;;;;;;;1.67;1.33;;;;;;;;5014648;28;51656;-60
2023/07/27 00:46:26;;;;;;;;;2.00;2.00;;;;;;;;5014838;28;50884;-60
2023/07/27 00:48:51;;;;;;;;;0.67;0.67;;;;;;;;5015068;28;50873;-60
2023/07/27 00:51:17;;;;;;;;;1.33;1.00;;;;;;;;5015321;28;51067;-60
2023/07/27 00:53:42;;;;;;;;;2.00;2.00;;;;;;;;5014678;28;51821;-60
2023/07/27 00:56:08;;;;;;;;;1.33;1.33;;;;;;;;5014877;28;50912;-60
2023/07/27 00:58:33;;;;;;;;;1.33;1.33;;;;;;;;5014822;28;51145;-60
2023/07/27 01:01:03;;;;;;;;;1.00;1.00;;;;;;;;5014765;28;51060;-60
2023/07/27 01:03:28;;;;;;;;;2.00;2.00;;;;;;;;5014561;28;51820;-59
2023/07/27 01:05:53;;;;;;;;;1.00;1.00;;;;;;;;5014712;28;51181;-59
2023/07/27 01:08:19;;;;;;;;;2.33;2.33;;;;;;;;5014439;28;51252;-59
2023/07/27 01:11:00;;;;;;;;;1.00;1.00;;;;;;;;5014497;28;51083;-60
2023/07/27 01:13:36;;;;;;;;;3.00;3.00;;;;;;;;5014367;28;52125;-60
2023/07/27 01:16:23;;;;;;;;;2.33;2.33;;;;;;;;5013129;28;51028;-61
2023/07/27 01:18:54;;;;;;;;;2.33;2.00;;;;;;;;5014456;28;50994;-61
2023/07/27 01:21:24;;;;;;;;;1.67;1.67;;;;;;;;5014869;28;51107;-60
2023/07/27 01:23:49;;;;;;;;;1.67;1.67;;;;;;;;5013846;28;51800;-60
2023/07/27 01:26:30;;;;;;;;;2.00;2.00;;;;;;;;5014850;28;50971;-61
2023/07/27 01:29:13;;;;;;;;;1.67;1.67;;;;;;;;5014545;28;51149;-60
2023/07/27 01:31:42;;;;;;;;;1.33;1.00;;;;;;;;5014165;28;51810;-60
2023/07/27 01:34:21;;;;;;;;;1.67;1.00;;;;;;;;5014203;28;52010;-60
2023/07/27 01:36:49;;;;;;;;;2.00;2.00;;;;;;;;5014091;28;51024;-61
2023/07/27 01:39:17;;;;;;;;;1.00;1.00;;;;;;;;5014098;28;51075;-59
2023/07/27 01:41:43;;;;;;;;;1.00;1.00;;;;;;;;5013697;28;51269;-60
2023/07/27 01:44:09;;;;;;;;;2.00;1.00;;;;;;;;5011625;28;53955;-60
2023/07/27 01:46:35;;;;;;;;;2.00;2.00;;;;;;;;5012358;28;51257;-60
2023/07/27 01:49:01;;;;;;;;;1.00;1.00;;;;;;;;5014178;28;51121;-60
2023/07/27 01:51:27;;;;;;;;;1.00;1.00;;;;;;;;5014649;28;50952;-60
2023/07/27 01:53:53;;;;;;;;;2.00;2.00;;;;;;;;5000744;28;51885;-60
2023/07/27 01:56:19;;;;;;;;;2.00;1.33;;;;;;;;4993860;28;51017;-60
2023/07/27 01:58:45;;;;;;;;;1.00;1.00;;;;;;;;4994107;28;50963;-60
2023/07/27 02:01:10;;;;;;;;;1.67;1.67;;;;;;;;4994142;28;50989;-59
2023/07/27 02:03:36;;;;;;;;;1.00;1.00;;;;;;;;4993745;28;52137;-59
2023/07/27 02:06:01;;;;;;;;;1.00;1.00;;;;;;;;4992315;28;50987;-59
2023/07/27 02:08:26;;;;;;;;;1.00;1.00;;;;;;;;4999698;28;51168;-59
2023/07/27 02:10:53;;;;;;;;;1.00;1.00;;;;;;;;5013593;28;51175;-60
2023/07/27 02:13:31;;;;;;;;;1.00;1.00;;;;;;;;5012286;28;54214;-59
2023/07/27 02:16:07;;;;;;;;;1.00;1.00;;;;;;;;5013271;28;51035;-59
2023/07/27 02:18:34;;;;;;;;;1.00;1.00;;;;;;;;5013661;28;51140;-59
2023/07/27 02:21:00;;;;;;;;;1.00;1.00;;;;;;;;5009940;28;51213;-60
2023/07/27 02:23:26;;;;;;;;;2.00;1.67;;;;;;;;5011412;28;52248;-60
2023/07/27 02:25:52;;;;;;;;;1.00;1.00;;;;;;;;4993844;28;51058;-61
2023/07/27 02:28:17;;;;;;;;;1.00;1.00;;;;;;;;4993791;28;51058;-60
2023/07/27 02:30:42;;;;;;;;;1.00;1.00;;;;;;;;4994099;28;50980;-59
2023/07/27 02:33:08;;;;;;;;;0.33;0.00;;;;;;;;4993337;28;52063;-60
2023/07/27 02:35:33;;;;;;;;;1.00;1.00;;;;;;;;4993823;28;51084;-60
2023/07/27 02:37:58;;;;;;;;;1.00;1.00;;;;;;;;4993196;28;51063;-60
2023/07/27 02:40:23;;;;;;;;;1.67;1.67;;;;;;;;4993826;28;50989;-60
2023/07/27 02:42:48;;;;;;;;;1.00;1.00;;;;;;;;4993184;28;51124;-60
2023/07/27 02:45:14;;;;;;;;;1.33;1.00;;;;;;;;4993335;28;51114;-60
2023/07/27 02:47:39;;;;;;;;;0.33;0.33;;;;;;;;4993438;28;50984;-60
2023/07/27 02:50:04;;;;;;;;;1.33;1.00;;;;;;;;4993193;28;51034;-60
2023/07/27 02:52:29;;;;;;;;;1.00;1.00;;;;;;;;4992779;28;51467;-57
2023/07/27 02:54:55;;;;;;;;;1.00;1.00;;;;;;;;4992755;28;50933;-60
2023/07/27 02:57:20;;;;;;;;;1.33;1.33;;;;;;;;4993137;28;51122;-61
2023/07/27 02:59:45;;;;;;;;;0.00;0.00;;;;;;;;4993279;28;50989;-62
2023/07/27 03:02:10;;;;;;;;;0.33;0.33;;;;;;;;4992976;28;51242;-60
2023/07/27 03:04:35;;;;;;;;;1.00;1.00;;;;;;;;4993238;28;51023;-60
2023/07/27 03:07:00;;;;;;;;;1.00;1.00;;;;;;;;4993129;28;51370;-60
2023/07/27 03:09:26;;;;;;;;;0.00;0.00;;;;;;;;5006967;28;51268;-59
2023/07/27 03:11:51;;;;;;;;;1.33;1.33;;;;;;;;5012548;28;50770;-59
2023/07/27 03:14:16;;;;;;;;;0.00;0.00;;;;;;;;5007078;28;50995;-59
2023/07/27 03:16:41;;;;;;;;;1.00;1.00;;;;;;;;5013054;28;50987;-58
2023/07/27 03:19:06;;;;;;;;;1.00;1.00;;;;;;;;5013147;28;51127;-59
2023/07/27 03:21:32;;;;;;;;;1.00;1.00;;;;;;;;5012861;28;51859;-59
2023/07/27 03:23:57;;;;;;;;;1.00;1.00;;;;;;;;5012250;28;50865;-59
2023/07/27 03:26:22;;;;;;;;;0.00;0.00;;;;;;;;5013016;28;50888;-60
2023/07/27 03:28:47;;;;;;;;;1.00;1.00;;;;;;;;5013016;28;50894;-61
2023/07/27 03:31:15;;;;;;;;;2.00;1.00;;;;;;;;5012646;28;52077;-60
2023/07/27 03:33:40;;;;;;;;;1.00;1.00;;;;;;;;5012482;28;50963;-60
2023/07/27 03:36:06;;;;;;;;;2.00;1.00;;;;;;;;5012353;28;51074;-62
2023/07/27 03:38:32;;;;;;;;;1.00;1.00;;;;;;;;5012203;28;51024;-60
2023/07/27 03:40:57;;;;;;;;;1.00;0.00;;;;;;;;5012371;28;52694;-59
2023/07/27 03:43:24;;;;;;;;;1.00;1.00;;;;;;;;5012533;28;51078;-60
2023/07/27 03:45:52;;;;;;;;;1.00;1.00;;;;;;;;5012475;28;50821;-60
2023/07/27 03:48:17;;;;;;;;;1.00;1.00;;;;;;;;5012568;28;50990;-59
2023/07/27 03:50:42;;;;;;;;;1.00;0.33;;;;;;;;5012174;28;51952;-60
2023/07/27 03:53:07;;;;;;;;;0.00;0.00;;;;;;;;5012246;28;50994;-60
2023/07/27 03:55:32;;;;;;;;;1.00;1.00;;;;;;;;5012674;28;51130;-60
2023/07/27 03:57:57;;;;;;;;;0.00;0.00;;;;;;;;5012416;28;50838;-60
2023/07/27 04:00:23;;;;;;;;;0.33;0.33;;;;;;;;5012298;28;50982;-60
2023/07/27 04:02:48;;;;;;;;;1.00;0.00;;;;;;;;5012465;28;51003;-60
2023/07/27 04:05:13;;;;;;;;;1.00;1.00;;;;;;;;5012709;28;51204;-60
2023/07/27 04:07:38;;;;;;;;;0.33;0.33;;;;;;;;5015601;28;51032;-60
2023/07/27 04:10:04;;;;;;;;;1.00;1.00;;;;;;;;5015185;28;50959;-60
2023/07/27 04:12:29;;;;;;;;;1.00;1.00;;;;;;;;5015436;28;51089;-59
2023/07/27 04:14:55;;;;;;;;;1.33;1.00;;;;;;;;5015167;28;51075;-59
2023/07/27 04:17:20;;;;;;;;;1.00;1.00;;;;;;;;5015565;28;51115;-59
2023/07/27 04:19:48;;;;;;;;;2.00;1.00;;;;;;;;5014970;28;52731;-59
2023/07/27 04:22:13;;;;;;;;;0.33;0.33;;;;;;;;5011781;28;51106;-59
2023/07/27 04:24:40;;;;;;;;;0.00;0.00;;;;;;;;5015011;28;51063;-59
2023/07/27 04:27:06;;;;;;;;;0.00;0.00;;;;;;;;5015489;28;50983;-59
2023/07/27 04:29:31;;;;;;;;;0.33;0.33;;;;;;;;5015016;28;52497;-58
2023/07/27 04:31:56;;;;;;;;;1.00;1.00;;;;;;;;5015223;28;51192;-60
2023/07/27 04:34:21;;;;;;;;;0.33;0.33;;;;;;;;5015490;28;51372;-59
2023/07/27 04:36:48;;;;;;;;;20.00;17.67;;;;;;;;5015365;28;51170;-60
2023/07/27 04:39:14;;;;;;;;;1.00;1.00;;;;;;;;5013645;28;51825;-58
2023/07/27 04:41:39;;;;;;;;;0.00;0.00;;;;;;;;5014950;28;51024;-59
2023/07/27 04:44:04;;;;;;;;;1.00;1.00;;;;;;;;5015279;28;51334;-58
2023/07/27 04:46:29;;;;;;;;;1.00;1.00;;;;;;;;5015250;28;51067;-59
2023/07/27 04:48:54;;;;;;;;;1.00;1.00;;;;;;;;5014915;28;52212;-59
2023/07/27 04:51:19;;;;;;;;;2.67;1.00;;;;;;;;5014872;28;51057;-60
2023/07/27 04:53:47;;;;;;;;;1.33;1.33;;;;;;;;5014847;28;50968;-60
2023/07/27 04:56:12;;;;;;;;;1.33;1.33;;;;;;;;5015031;28;51297;-60
2023/07/27 04:58:38;;;;;;;;;1.00;1.00;;;;;;;;5015029;28;51103;-60
2023/07/27 05:01:03;;;;;;;;;0.00;0.00;;;;;;;;5015074;28;51007;-60
2023/07/27 05:03:28;;;;;;;;;1.00;1.00;;;;;;;;5015303;28;50959;-60
2023/07/27 05:05:53;;;;;;;;;1.00;1.00;;;;;;;;5014997;28;51389;-60
2023/07/27 05:08:18;;;;;;;;;0.67;0.67;;;;;;;;5014110;28;51328;-60
2023/07/27 05:10:44;;;;;;;;;1.00;1.00;;;;;;;;5014576;28;50944;-60
2023/07/27 05:13:09;;;;;;;;;0.00;0.00;;;;;;;;5014916;28;51010;-59
2023/07/27 05:15:34;;;;;;;;;1.00;1.00;;;;;;;;5014967;28;50912;-61
2023/07/27 05:18:00;;;;;;;;;1.00;1.00;;;;;;;;5014461;28;51797;-61
2023/07/27 05:20:25;;;;;;;;;2.00;1.33;;;;;;;;5014508;28;51224;-61
2023/07/27 05:22:50;;;;;;;;;1.00;1.00;;;;;;;;5014467;28;50857;-60
2023/07/27 05:25:16;;;;;;;;;2.33;2.33;;;;;;;;4996678;28;50969;-59
2023/07/27 05:27:41;;;;;;;;;2.00;2.00;;;;;;;;5014116;28;52045;-60
2023/07/27 05:30:06;;;;;;;;;1.67;1.00;;;;;;;;5014367;28;50934;-60
2023/07/27 05:32:32;;;;;;;;;0.00;0.00;;;;;;;;5014295;28;50986;-60
2023/07/27 05:34:57;;;;;;;;;1.00;1.00;;;;;;;;5014490;28;50826;-60
2023/07/27 05:37:22;;;;;;;;;1.00;1.00;;;;;;;;5013973;28;50863;-59
2023/07/27 05:39:47;;;;;;;;;0.00;0.00;;;;;;;;5014164;28;51100;-60
2023/07/27 05:42:13;;;;;;;;;1.00;1.00;;;;;;;;5012775;28;50981;-59
2023/07/27 05:44:38;;;;;;;;;2.67;2.00;;;;;;;;5014148;28;50964;-60
2023/07/27 05:47:04;;;;;;;;;1.00;1.00;;;;;;;;5013739;28;52516;-59
2023/07/27 05:49:30;;;;;;;;;1.00;1.00;;;;;;;;5013803;28;50973;-60
2023/07/27 05:51:55;;;;;;;;;1.00;1.00;;;;;;;;5013710;28;50952;-60
2023/07/27 05:54:20;;;;;;;;;1.00;0.00;;;;;;;;5014111;28;51026;-60
2023/07/27 05:56:46;;;;;;;;;1.00;1.00;;;;;;;;5012411;28;51899;-58
2023/07/27 05:59:11;;;;;;;;;1.00;1.00;;;;;;;;5014034;28;51206;-60
2023/07/27 06:01:36;;;;;;;;;2.33;2.00;;;;;;;;5008807;28;51085;-61
2023/07/27 06:04:02;;;;;;;;;2.00;1.00;;;;;;;;5013488;28;51074;-60
2023/07/27 06:06:28;;;;;;;;;2.00;2.00;;;;;;;;5011752;28;52169;-59
2023/07/27 06:08:53;;;;;;;;;2.00;1.67;;;;;;;;5012840;28;50962;-60
2023/07/27 06:11:19;;;;;;;;;2.00;2.00;;;;;;;;5013140;28;51186;-60
2023/07/27 06:13:44;;;;;;;;;2.00;2.00;;;;;;;;5013946;28;51095;-60
2023/07/27 06:16:09;;;;;;;;;2.00;2.00;;;;;;;;5013252;28;51881;-60
2023/07/27 06:18:35;;;;;;;;;1.67;1.67;;;;;;;;5013574;28;50872;-61
2023/07/27 06:21:00;;;;;;;;;2.00;2.00;;;;;;;;5013676;28;50988;-60
2023/07/27 06:23:26;;;;;;;;;1.33;1.33;;;;;;;;5013554;28;51023;-60
2023/07/27 06:25:51;;;;;;;;;1.00;1.00;;;;;;;;5013707;28;50989;-60
2023/07/27 06:28:16;;;;;;;;;1.33;1.33;;;;;;;;5012648;28;51028;-60
2023/07/27 06:30:42;;;;;;;;;4.00;3.67;;;;;;;;5013695;28;50989;-60
2023/07/27 06:33:07;;;;;;;;;2.00;2.00;;;;;;;;5013540;28;50896;-60
2023/07/27 06:35:33;;;;;;;;;2.00;2.00;;;;;;;;5013070;28;51654;-60
2023/07/27 06:37:58;;;;;;;;;3.00;3.00;;;;;;;;5012888;28;50849;-59
2023/07/27 06:40:24;;;;;;;;;2.00;2.00;;;;;;;;5013383;28;50956;-60
2023/07/27 06:42:49;;;;;;;;;4.00;3.00;;;;;;;;5013269;28;50853;-59
2023/07/27 06:45:14;;;;;;;;;2.00;2.00;;;;;;;;5012794;28;51097;-59
2023/07/27 06:47:39;;;;;;;;;3.33;3.33;;;;;;;;5013141;28;51098;-59
2023/07/27 06:50:05;;;;;;;;;4.00;4.00;;;;;;;;5013060;28;50948;-60
2023/07/27 06:52:30;;;;;;;;;2.00;1.00;;;;;;;;5011764;28;50921;-59
2023/07/27 06:54:56;;;;;;;;;2.00;2.00;;;;;;;;5012863;28;52039;-60
2023/07/27 06:57:24;;;;;;;;;2.00;2.00;;;;;;;;5012916;28;51106;-60
2023/07/27 06:59:49;;;;;;;;;2.67;2.00;;;;;;;;5011065;28;50987;-61
2023/07/27 07:02:14;;;;;;;;;3.00;3.00;;;;;;;;5013093;28;50963;-59
2023/07/27 07:04:39;;;;;;;;;3.33;3.33;;;;;;;;5012543;28;51095;-59
2023/07/27 07:07:07;;;;;;;;;2.00;2.00;;;;;;;;5012566;28;50856;-59
2023/07/27 07:09:35;;;;;;;;;2.33;2.00;;;;;;;;5011092;28;51087;-59
2023/07/27 07:12:00;;;;;;;;;1.33;1.33;;;;;;;;5012801;28;51078;-60
2023/07/27 07:14:26;;;;;;;;;1.00;1.00;;;;;;;;5012363;28;51102;-60
2023/07/27 07:16:51;;;;;;;;;2.00;2.00;;;;;;;;5012537;28;51070;-60
2023/07/27 07:19:16;;;;;;;;;1.33;1.00;;;;;;;;5012938;28;50908;-59
2023/07/27 07:21:41;;;;;;;;;4.33;3.67;;;;;;;;5012771;28;51052;-59
2023/07/27 07:24:06;;;;;;;;;2.33;2.33;;;;;;;;5010788;28;51163;-60
2023/07/27 07:26:32;;;;;;;;;1.00;1.00;;;;;;;;5012619;28;51091;-59
2023/07/27 07:28:57;;;;;;;;;2.67;2.67;;;;;;;;5012512;28;51015;-59
2023/07/27 07:31:22;;;;;;;;;1.00;1.00;;;;;;;;5012679;28;51317;-59
2023/07/27 07:33:48;;;;;;;;;3.00;3.00;;;;;;;;4991056;28;52800;-59
2023/07/27 07:36:13;;;;;;;;;2.33;2.33;;;;;;;;4992690;28;51086;-61
2023/07/27 07:38:39;;;;;;;;;3.00;3.00;;;;;;;;4992136;28;51126;-60
2023/07/27 07:41:04;;;;;;;;;1.00;1.00;;;;;;;;4995353;28;51298;-59
2023/07/27 07:43:29;;;;;;;;;4.67;4.67;;;;;;;;4995830;28;51946;-59
2023/07/27 07:45:54;;;;;;;;;3.67;3.67;;;;;;;;4994894;28;51042;-60
2023/07/27 07:48:19;;;;;;;;;3.33;3.33;;;;;;;;4995914;28;50979;-59
2023/07/27 07:50:47;;;;;;;;;5.00;4.00;;;;;;;;4996229;28;50846;-60
2023/07/27 07:53:13;;;;;;;;;3.00;2.00;;;;;;;;4996074;28;51012;-60
2023/07/27 07:55:38;;;;;;;;;3.67;3.67;;;;;;;;4997044;28;51082;-61
2023/07/27 07:58:03;;;;;;;;;6.00;5.00;;;;;;;;4995928;28;51091;-60
2023/07/27 08:00:28;;;;;;;;;1.00;1.00;;;;;;;;4996183;28;51278;-60
2023/07/27 08:02:54;;;;;;;;;2.67;2.67;;;;;;;;5015007;28;51939;-60
2023/07/27 08:05:19;;;;;;;;;4.33;1.33;;;;;;;;5003047;28;51038;-60
2023/07/27 08:07:44;;;;;;;;;2.67;2.67;;;;;;;;5000669;28;51090;-59
2023/07/27 08:10:09;;;;;;;;;3.00;3.00;;;;;;;;5015253;28;51369;-59
2023/07/27 08:12:35;;;;;;;;;1.67;1.67;;;;;;;;5012047;28;51195;-59
2023/07/27 08:15:01;;;;;;;;;2.00;2.00;;;;;;;;5015591;28;51040;-59
2023/07/27 08:17:29;;;;;;;;;1.33;1.33;;;;;;;;5015370;28;51182;-59
2023/07/27 08:19:54;;;;;;;;;2.67;1.00;;;;;;;;5015436;28;51332;-59
2023/07/27 08:22:19;;;;;;;;;2.00;2.00;;;;;;;;5014520;28;51036;-59
2023/07/27 08:24:45;;;;;;;;;3.00;3.00;;;;;;;;5015345;28;50905;-59
2023/07/27 08:27:10;;;;;;;;;2.00;1.67;;;;;;;;5015168;28;50978;-60
2023/07/27 08:29:35;;;;;;;;;1.00;1.00;;;;;;;;5015355;28;51529;-61
2023/07/27 08:32:01;;;;;;;;;0.33;0.33;;;;;;;;5014426;28;52668;-59
2023/07/27 08:34:26;;;;;;;;;1.00;1.00;;;;;;;;5015112;28;50983;-59
2023/07/27 08:36:52;;;;;;;;;2.00;2.00;;;;;;;;5014605;28;50963;-59
2023/07/27 08:39:17;;;;;;;;;1.33;1.33;;;;;;;;5015180;28;51336;-60
2023/07/27 08:41:43;;;;;;;;;4.00;4.00;;;;;;;;5014753;28;51910;-60
2023/07/27 08:44:08;;;;;;;;;1.00;1.00;;;;;;;;5014943;28;50969;-60
2023/07/27 08:46:33;;;;;;;;;2.33;2.00;;;;;;;;5014705;28;52258;-60
2023/07/27 08:49:01;;;;;;;;;1.33;1.00;;;;;;;;5013851;28;50984;-61
2023/07/27 08:51:26;;;;;;;;;2.67;2.67;;;;;;;;5013632;28;52059;-61
2023/07/27 08:53:51;;;;;;;;;4.33;3.67;;;;;;;;5014673;28;51125;-61
2023/07/27 08:56:17;;;;;;;;;2.00;2.00;;;;;;;;5014571;28;51224;-61
2023/07/27 08:58:42;;;;;;;;;3.00;3.00;;;;;;;;5014938;28;51064;-60
2023/07/27 09:01:08;;;;;;;;;4.00;3.33;;;;;;;;5014270;28;51065;-60
2023/07/27 09:03:33;;;;;;;;;1.00;1.00;;;;;;;;5014704;28;51015;-59
2023/07/27 09:05:59;;;;;;;;;3.33;3.33;;;;;;;;5013930;28;50971;-60
2023/07/27 09:08:28;;;;;;;;;1.33;1.33;;;;;;;;5014426;28;51017;-60
2023/07/27 09:10:54;;;;;;;;;2.00;2.00;;;;;;;;5012432;28;51971;-61
2023/07/27 09:13:19;;;;;;;;;1.00;1.00;;;;;;;;5014388;28;50901;-60
2023/07/27 09:15:45;;;;;;;;;1.00;1.00;;;;;;;;5014219;28;51091;-60
2023/07/27 09:18:11;;;;;;;;;4.00;4.00;;;;;;;;5014432;28;51225;-60
2023/07/27 09:20:37;;;;;;;;;2.00;2.00;;;;;;;;5014115;28;52140;-60
2023/07/27 09:23:02;;;;;;;;;4.33;3.00;;;;;;;;5014175;28;51043;-61
2023/07/27 09:25:27;;;;;;;;;2.33;2.33;;;;;;;;5014027;28;50978;-60
2023/07/27 09:27:56;;;;;;;;;3.67;3.00;;;;;;;;5013986;28;51279;-60
2023/07/27 09:30:23;;;;;;;;;5.00;5.00;;;;;;;;5013629;28;52363;-61
2023/07/27 09:32:48;;;;;;;;;2.67;2.67;;;;;;;;5013809;28;50994;-60
2023/07/27 09:35:14;;;;;;;;;2.67;2.67;;;;;;;;5013832;28;50916;-62
2023/07/27 09:37:50;;;;;;;;;2.00;2.00;;;;;;;;5014183;28;51271;-60
2023/07/27 09:40:16;;;;;;;;;2.00;2.00;;;;;;;;5013911;28;51066;-60
2023/07/27 09:42:42;;;;;;;;;1.67;1.67;;;;;;;;5013849;28;50924;-60
2023/07/27 09:45:08;;;;;;;;;2.00;2.00;;;;;;;;5013804;28;50949;-60
2023/07/27 09:47:33;;;;;;;;;1.00;1.00;;;;;;;;5013837;28;50924;-60
2023/07/27 09:50:01;;;;;;;;;0.67;0.67;;;;;;;;5013101;28;51839;-61
2023/07/27 09:52:29;;;;;;;;;2.33;2.00;;;;;;;;5013697;28;50841;-61
2023/07/27 09:54:55;;;;;;;;;2.00;1.00;;;;;;;;5013263;28;50958;-59
2023/07/27 09:57:20;;;;;;;;;1.00;1.00;;;;;;;;5013978;28;51056;-60
2023/07/27 09:59:45;;;;;;;;;2.00;2.00;;;;;;;;5013329;28;51873;-61
2023/07/27 10:02:13;;;;;;;;;2.00;2.00;;;;;;;;5013785;28;51007;-60
2023/07/27 10:04:38;;;;;;;;;1.33;1.00;;;;;;;;5012395;28;50944;-60
2023/07/27 10:07:04;;;;;;;;;3.00;2.00;;;;;;;;5011832;28;51114;-61
2023/07/27 10:09:29;;;;;;;;;3.00;2.67;;;;;;;;5011397;28;52686;-60
2023/07/27 10:11:55;;;;;;;;;3.33;3.33;;;;;;;;5011789;28;51072;-63
2023/07/27 10:14:23;;;;;;;;;3.00;3.00;;;;;;;;5010267;28;51049;-60
2023/07/27 10:16:58;;;;;;;;;3.00;3.00;;;;;;;;5000536;28;50989;-60
2023/07/27 10:19:23;;;;;;;;;2.33;2.00;;;;;;;;5000872;28;52193;-63
2023/07/27 10:21:49;;;;;;;;;3.00;2.50;;;;;;;;5012838;28;50901;-59
2023/07/27 10:24:19;;;;;;;;;3.00;3.00;;;;;;;;5013147;28;51080;-60
2023/07/27 10:26:51;;;;;;;;;5.00;4.67;;;;;;;;5012906;28;51332;-61
2023/07/27 10:29:17;;;;;;;;;5.00;4.00;;;;;;;;5012689;28;51958;-60
2023/07/27 10:31:44;;;;;;;;;4.33;3.67;;;;;;;;5012814;28;51020;-60
2023/07/27 10:34:13;;;;;;;;;4.00;3.33;;;;;;;;5011362;28;51073;-60
2023/07/27 10:36:52;;;;;;;;;4.00;4.00;;;;;;;;5012772;28;50861;-60
2023/07/27 10:39:22;;;;;;;;;3.00;3.00;;;;;;;;5012579;28;52022;-60
2023/07/27 10:42:04;;;;;;;;;3.67;3.67;;;;;;;;5012629;28;51211;-60
2023/07/27 10:44:40;;;;;;;;;5.00;4.00;;;;;;;;5011536;28;51087;-60
2023/07/27 10:47:06;;;;;;;;;6.00;5.00;;;;;;;;5012692;28;50951;-61
2023/07/27 10:49:37;;;;;;;;;3.00;2.00;;;;;;;;5012534;28;51073;-61
2023/07/27 10:52:02;;;;;;;;;3.00;3.00;;;;;;;;5012210;28;51068;-60
2023/07/27 10:54:27;;;;;;;;;2.67;2.67;;;;;;;;5012499;28;51268;-61
2023/07/27 10:56:53;;;;;;;;;4.00;3.67;;;;;;;;5013318;28;51123;-60
2023/07/27 10:59:18;;;;;;;;;3.00;3.00;;;;;;;;5012310;28;51074;-60
2023/07/27 11:01:46;;;;;;;;;3.00;3.00;;;;;;;;5012769;28;51090;-60
2023/07/27 11:04:13;;;;;;;;;3.67;2.67;;;;;;;;5011215;28;50929;-60
2023/07/27 11:06:43;;;;;;;;;4.00;3.33;;;;;;;;5012627;28;51106;-61
2023/07/27 11:09:18;;;;;;;;;4.00;4.00;;;;;;;;5011690;28;51075;-61
2023/07/27 11:11:44;;;;;;;;;4.33;3.33;;;;;;;;5012204;28;51114;-61
2023/07/27 11:14:10;;;;;;;;;3.67;3.00;;;;;;;;5012090;28;51079;-60
2023/07/27 11:16:38;;;;;;;;;5.00;5.00;;;;;;;;5012527;28;51261;-59
2023/07/27 11:19:06;;;;;;;;;4.33;4.00;;;;;;;;5011916;28;50898;-60
2023/07/27 11:21:32;;;;;;;;;5.67;5.00;;;;;;;;5012246;28;51168;-59
2023/07/27 11:23:57;;;;;;;;;5.00;4.00;;;;;;;;5011722;28;51092;-60
2023/07/27 11:26:24;;;;;;;;;5.00;4.00;;;;;;;;5012702;28;51423;-60
2023/07/27 11:28:50;;;;;;;;;4.33;4.33;;;;;;;;5012162;28;51100;-60
2023/07/27 11:31:18;;;;;;;;;4.00;4.00;;;;;;;;5012113;28;50871;-61
2023/07/27 11:33:43;;;;;;;;;4.67;4.33;;;;;;;;5012219;28;51196;-59
2023/07/27 11:36:10;;;;;;;;;4.33;4.33;;;;;;;;5012170;28;51169;-60
2023/07/27 11:38:36;;;;;;;;;6.00;5.00;;;;;;;;5011511;28;52879;-60
2023/07/27 11:41:01;;;;;;;;;4.00;4.00;;;;;;;;5011585;28;51094;-60
2023/07/27 11:43:27;;;;;;;;;3.67;3.67;;;;;;;;5011800;28;51287;-60
2023/07/27 11:46:00;;;;;;;;;6.00;5.00;;;;;;;;5010629;28;51370;-60
2023/07/27 11:48:28;;;;;;;;;6.00;6.00;;;;;;;;5010094;28;51699;-60
2023/07/27 11:50:57;;;;;;;;;7.67;7.00;;;;;;;;5011440;28;50992;-60
2023/07/27 11:53:27;;;;;;;;;4.00;4.00;;;;;;;;5011290;28;50997;-60
2023/07/27 11:55:53;;;;;;;;;5.33;4.33;;;;;;;;5011481;28;51059;-61
2023/07/27 11:58:18;;;;;;;;;5.33;4.33;;;;;;;;5009864;28;53648;-60
2023/07/27 12:00:48;;;;;;;;;5.00;4.00;;;;;;;;5011571;28;50984;-60
2023/07/27 12:03:13;;;;;;;;;5.33;5.33;;;;;;;;5011743;28;51036;-60
2023/07/27 12:05:39;;;;;;;;;3.00;3.00;;;;;;;;5011809;28;50986;-59
2023/07/27 12:08:04;;;;;;;;;3.33;3.33;;;;;;;;5010590;28;50903;-60
2023/07/27 12:10:29;;;;;;;;;5.00;5.00;;;;;;;;5009723;28;51093;-60
2023/07/27 12:13:05;;;;;;;;;5.00;5.00;;;;;;;;5011330;28;51142;-61
2023/07/27 12:15:34;;;;;;;;;6.00;6.00;;;;;;;;5007237;28;51156;-60
2023/07/27 12:18:01;;;;;;;;;6.67;6.00;;;;;;;;5011292;28;52152;-60
2023/07/27 12:20:27;;;;;;;;;5.00;4.67;;;;;;;;5011019;28;50927;-60
2023/07/27 12:22:53;;;;;;;;;5.00;4.00;;;;;;;;5011336;28;51150;-60
2023/07/27 12:25:18;;;;;;;;;3.00;3.00;;;;;;;;5011648;28;51088;-60
2023/07/27 12:27:43;;;;;;;;;6.33;5.00;;;;;;;;5013223;28;50991;-61
2023/07/27 12:30:09;;;;;;;;;6.33;5.00;;;;;;;;5014384;28;51042;-60
2023/07/27 12:32:35;;;;;;;;;5.67;5.67;;;;;;;;5013629;28;50975;-60
2023/07/27 12:35:00;;;;;;;;;5.33;5.33;;;;;;;;5013520;28;51241;-59
2023/07/27 12:37:25;;;;;;;;;5.00;5.00;;;;;;;;5014627;28;51519;-60
2023/07/27 12:39:50;;;;;;;;;5.00;5.00;;;;;;;;5014211;28;51041;-60
2023/07/27 12:42:16;;;;;;;;;4.00;4.00;;;;;;;;5014698;28;51250;-60
2023/07/27 12:44:41;;;;;;;;;6.50;6.50;;;;;;;;5014390;28;51291;-62
2023/07/27 12:47:06;;;;;;;;;6.00;5.00;;;;;;;;5014351;28;51060;-61
2023/07/27 12:49:31;;;;;;;;;6.00;6.00;;;;;;;;5014229;28;51220;-59
2023/07/27 12:51:57;;;;;;;;;6.00;4.33;;;;;;;;5014211;28;51064;-61
2023/07/27 12:54:22;;;;;;;;;6.00;5.00;;;;;;;;5014450;28;50961;-59
2023/07/27 12:56:47;;;;;;;;;5.33;5.00;;;;;;;;5014265;28;51829;-60
2023/07/27 12:59:12;;;;;;;;;5.00;4.67;;;;;;;;5012827;28;51074;-60
2023/07/27 13:01:38;;;;;;;;;6.00;6.00;;;;;;;;5014156;28;51030;-60
2023/07/27 13:04:03;;;;;;;;;12.67;12.00;;;;;;;;5014102;28;51073;-60
2023/07/27 13:06:28;;;;;;;;;6.00;6.00;;;;;;;;5013941;28;52131;-61
2023/07/27 13:08:53;;;;;;;;;6.67;6.00;;;;;;;;5014066;28;51155;-60
2023/07/27 13:11:19;;;;;;;;;5.00;5.00;;;;;;;;5014383;28;51130;-61
2023/07/27 13:13:45;;;;;;;;;5.00;5.00;;;;;;;;5014375;28;50998;-61
2023/07/27 13:16:10;;;;;;;;;6.33;5.33;;;;;;;;5014191;28;51261;-59
2023/07/27 13:18:35;;;;;;;;;6.33;5.67;;;;;;;;5014388;28;50915;-63
2023/07/27 13:21:00;;;;;;;;;5.67;5.33;;;;;;;;5014640;28;51041;-63
2023/07/27 13:23:25;;;;;;;;;6.00;4.33;;;;;;;;5014121;28;51094;-62
2023/07/27 13:25:51;;;;;;;;;5.00;5.00;;;;;;;;5014189;28;51806;-62
2023/07/27 13:28:16;;;;;;;;;6.00;5.00;;;;;;;;5014206;28;50868;-61
2023/07/27 13:30:41;;;;;;;;;7.67;7.00;;;;;;;;5012828;28;51075;-61
2023/07/27 13:33:06;;;;;;;;;5.33;5.33;;;;;;;;5012822;28;50864;-61
2023/07/27 13:35:31;;;;;;;;;7.00;6.00;;;;;;;;5013666;28;51546;-61
2023/07/27 13:37:57;;;;;;;;;6.33;6.00;;;;;;;;5013267;28;51093;-60
2023/07/27 13:40:22;;;;;;;;;7.67;7.00;;;;;;;;5013870;28;51310;-60
2023/07/27 13:42:47;;;;;;;;;10.00;8.00;;;;;;;;5014078;28;50808;-60
2023/07/27 13:45:13;;;;;;;;;8.00;7.00;;;;;;;;5013362;28;52808;-59
2023/07/27 13:47:38;;;;;;;;;5.00;4.67;;;;;;;;5013814;28;51111;-61
2023/07/27 13:50:03;;;;;;;;;6.33;6.33;;;;;;;;5013697;28;51071;-61
2023/07/27 13:52:28;;;;;;;;;5.00;5.00;;;;;;;;5013723;28;50969;-61
2023/07/27 13:54:54;;;;;;;;;5.00;5.00;;;;;;;;5013654;28;51794;-63
2023/07/27 13:57:19;;;;;;;;;4.67;4.67;;;;;;;;5013883;28;51232;-61
2023/07/27 13:59:44;;;;;;;;;5.00;5.00;;;;;;;;5012110;28;51212;-61
2023/07/27 14:02:09;;;;;;;;;6.33;6.33;;;;;;;;5013965;28;51001;-60
2023/07/27 14:04:35;;;;;;;;;7.00;6.00;;;;;;;;5013103;28;50954;-61
2023/07/27 14:07:00;;;;;;;;;7.00;7.00;;;;;;;;5013115;28;51146;-59
2023/07/27 14:09:26;;;;;;;;;5.00;5.00;;;;;;;;5011867;28;51212;-61
2023/07/27 14:11:52;;;;;;;;;4.67;4.00;;;;;;;;5013462;28;50919;-60
2023/07/27 14:14:17;;;;;;;;;6.00;6.00;;;;;;;;5011117;28;51888;-60
2023/07/27 14:16:42;;;;;;;;;6.67;6.33;;;;;;;;5009728;28;51376;-60
2023/07/27 14:19:07;;;;;;;;;7.67;7.00;;;;;;;;4994430;28;51213;-60
2023/07/27 14:21:33;;;;;;;;;6.00;6.00;;;;;;;;4993680;28;51077;-60
2023/07/27 14:23:58;;;;;;;;;8.00;8.00;;;;;;;;4993124;28;50943;-60
2023/07/27 14:26:23;;;;;;;;;8.00;7.67;;;;;;;;4993536;28;51122;-60
2023/07/27 14:28:48;;;;;;;;;6.00;6.00;;;;;;;;4993198;28;51042;-60
2023/07/27 14:31:13;;;;;;;;;8.00;7.33;;;;;;;;4993575;28;50923;-61
2023/07/27 14:33:39;;;;;;;;;8.00;8.00;;;;;;;;4992804;28;51959;-60
2023/07/27 14:36:04;;;;;;;;;7.00;7.00;;;;;;;;4993157;28;51046;-61